createdAt,value
2017-10-03T00:00:40.336Z,1024.32
2017-10-03T00:01:40.329Z,1024.3
2017-10-03T00:02:40.324Z,1024.28
2017-10-03T00:03:40.318Z,1024.22
2017-10-03T00:04:40.312Z,1024.19
2017-10-03T00:05:40.306Z,1024.2
2017-10-03T00:06:40.318Z,1024.21
2017-10-03T00:07:40.293Z,1024.19
2017-10-03T00:08:40.288Z,1024.2
2017-10-03T00:09:40.281Z,1024.21
2017-10-03T00:10:40.274Z,1024.2
2017-10-03T00:11:40.267Z,1024.18
2017-10-03T00:12:40.261Z,1024.16
2017-10-03T00:13:40.255Z,1024.19
2017-10-03T00:14:40.248Z,1024.2
2017-10-03T00:15:40.241Z,1024.25
2017-10-03T00:16:40.236Z,1024.29
2017-10-03T00:17:40.229Z,1024.35
2017-10-03T00:18:40.223Z,1024.46
2017-10-03T00:19:40.217Z,1024.53
2017-10-03T00:20:40.212Z,1024.47
2017-10-03T00:21:40.205Z,1024.62
2017-10-03T00:22:40.200Z,1024.67
2017-10-03T00:23:40.193Z,1024.59
2017-10-03T00:24:40.187Z,1024.59
2017-10-03T00:25:40.190Z,1024.68
2017-10-03T00:26:40.172Z,1024.7
2017-10-03T00:27:40.167Z,1024.6
2017-10-03T00:28:40.160Z,1024.48
2017-10-03T00:29:40.154Z,1024.51
2017-10-03T00:30:40.148Z,1024.57
2017-10-03T00:31:40.142Z,1024.62
2017-10-03T00:32:40.136Z,1024.62
2017-10-03T00:33:40.129Z,1024.58
2017-10-03T00:34:40.122Z,1024.69
2017-10-03T00:35:40.116Z,1024.68
2017-10-03T00:36:40.111Z,1024.61
2017-10-03T00:37:40.103Z,1024.62
2017-10-03T00:38:40.099Z,1024.62
2017-10-03T00:39:40.091Z,1024.57
2017-10-03T00:40:40.086Z,1024.55
2017-10-03T00:41:40.079Z,1024.58
2017-10-03T00:42:40.071Z,1024.62
2017-10-03T00:43:40.065Z,1024.65
2017-10-03T00:44:40.060Z,1024.61
2017-10-03T00:45:40.052Z,1024.6
2017-10-03T00:46:40.047Z,1024.58
2017-10-03T00:47:40.040Z,1024.58
2017-10-03T00:48:40.032Z,1024.56
2017-10-03T00:49:40.026Z,1024.58
2017-10-03T00:50:40.020Z,1024.53
2017-10-03T00:51:40.014Z,1024.53
2017-10-03T00:52:40.008Z,1024.6
2017-10-03T00:53:40.002Z,1024.59
2017-10-03T00:54:39.993Z,1024.6
2017-10-03T00:55:39.988Z,1024.59
2017-10-03T00:56:39.980Z,1024.62
2017-10-03T00:57:39.973Z,1024.61
2017-10-03T00:58:39.969Z,1024.61
2017-10-03T00:59:39.962Z,1024.55
2017-10-03T01:00:39.955Z,1024.54
2017-10-03T01:01:39.949Z,1024.52
2017-10-03T01:02:39.941Z,1024.57
2017-10-03T01:03:39.934Z,1024.63
2017-10-03T01:04:39.927Z,1024.67
2017-10-03T01:05:39.921Z,1024.66
2017-10-03T01:06:39.915Z,1024.68
2017-10-03T01:07:39.908Z,1024.68
2017-10-03T01:08:39.903Z,1024.7
2017-10-03T01:09:39.895Z,1024.68
2017-10-03T01:10:39.887Z,1024.7
2017-10-03T01:11:39.880Z,1024.66
2017-10-03T01:12:39.875Z,1024.65
2017-10-03T01:13:39.873Z,1024.68
2017-10-03T01:14:39.860Z,1024.69
2017-10-03T01:15:39.854Z,1024.74
2017-10-03T01:16:39.848Z,1024.77
2017-10-03T01:17:39.842Z,1024.82
2017-10-03T01:18:39.835Z,1024.86
2017-10-03T01:19:39.829Z,1024.82
2017-10-03T01:20:39.822Z,1024.88
2017-10-03T01:21:39.815Z,1024.85
2017-10-03T01:22:39.808Z,1024.85
2017-10-03T01:23:39.801Z,1024.83
2017-10-03T01:24:39.793Z,1024.82
2017-10-03T01:25:39.786Z,1024.82
2017-10-03T01:26:39.781Z,1024.81
2017-10-03T01:27:39.775Z,1024.86
2017-10-03T01:28:39.769Z,1024.82
2017-10-03T01:29:39.760Z,1024.84
2017-10-03T01:30:39.753Z,1024.85
2017-10-03T01:31:39.747Z,1024.9
2017-10-03T01:32:39.739Z,1024.89
2017-10-03T01:33:39.733Z,1024.92
2017-10-03T01:34:39.727Z,1024.91
2017-10-03T01:35:39.721Z,1024.92
2017-10-03T01:36:39.714Z,1024.98
2017-10-03T01:37:39.707Z,1024.96
2017-10-03T01:38:39.700Z,1024.92
2017-10-03T01:39:39.693Z,1024.97
2017-10-03T01:40:39.689Z,1024.98
2017-10-03T01:41:39.680Z,1024.98
2017-10-03T01:42:39.675Z,1025.01
2017-10-03T01:43:39.666Z,1024.95
2017-10-03T01:44:39.659Z,1024.98
2017-10-03T01:45:39.653Z,1024.95
2017-10-03T01:46:39.648Z,1024.96
2017-10-03T01:47:39.640Z,1025.01
2017-10-03T01:48:39.634Z,1025
2017-10-03T01:49:39.627Z,1024.98
2017-10-03T01:50:39.621Z,1024.93
2017-10-03T01:51:39.612Z,1024.94
2017-10-03T01:52:39.604Z,1024.93
2017-10-03T01:53:39.598Z,1024.88
2017-10-03T01:54:39.592Z,1024.86
2017-10-03T01:55:39.585Z,1024.86
2017-10-03T01:56:39.579Z,1024.83
2017-10-03T01:57:39.571Z,1024.86
2017-10-03T01:58:39.563Z,1024.88
2017-10-03T01:59:39.556Z,1024.89
2017-10-03T02:00:39.550Z,1024.89
2017-10-03T02:01:39.542Z,1025
2017-10-03T02:02:39.536Z,1024.96
2017-10-03T02:03:39.530Z,1024.97
2017-10-03T02:04:39.523Z,1024.92
2017-10-03T02:05:39.516Z,1024.89
2017-10-03T02:06:39.510Z,1024.93
2017-10-03T02:07:39.502Z,1024.96
2017-10-03T02:08:39.496Z,1025.05
2017-10-03T02:09:39.489Z,1025.07
2017-10-03T02:10:39.480Z,1025.09
2017-10-03T02:11:39.474Z,1025.07
2017-10-03T02:12:39.465Z,1025.08
2017-10-03T02:13:39.460Z,1025.12
2017-10-03T02:14:39.454Z,1025.1
2017-10-03T02:15:39.448Z,1025.12
2017-10-03T02:16:39.438Z,1025.06
2017-10-03T02:17:39.433Z,1024.97
2017-10-03T02:18:39.424Z,1024.98
2017-10-03T02:19:39.418Z,1025.02
2017-10-03T02:20:39.410Z,1025.03
2017-10-03T02:21:39.403Z,1025.02
2017-10-03T02:22:39.397Z,1025.04
2017-10-03T02:23:39.389Z,1025.02
2017-10-03T02:24:39.384Z,1025.02
2017-10-03T02:25:39.377Z,1025.02
2017-10-03T02:26:39.368Z,1025.03
2017-10-03T02:27:39.360Z,1025.02
2017-10-03T02:28:39.355Z,1025.02
2017-10-03T02:29:39.349Z,1025.01
2017-10-03T02:30:39.340Z,1025.09
2017-10-03T02:31:39.332Z,1025.13
2017-10-03T02:32:39.326Z,1025.15
2017-10-03T02:33:39.332Z,1025.14
2017-10-03T02:34:39.313Z,1025.07
2017-10-03T02:35:39.306Z,1025.08
2017-10-03T02:36:39.299Z,1025.05
2017-10-03T02:37:39.292Z,1025.07
2017-10-03T02:38:39.284Z,1025.1
2017-10-03T02:39:39.276Z,1025.07
2017-10-03T02:40:39.271Z,1025.07
2017-10-03T02:41:39.264Z,1025.11
2017-10-03T02:42:39.256Z,1025.17
2017-10-03T02:43:39.250Z,1025.2
2017-10-03T02:44:39.243Z,1025.23
2017-10-03T02:45:39.235Z,1025.18
2017-10-03T02:46:39.226Z,1025.12
2017-10-03T02:47:39.220Z,1025.08
2017-10-03T02:48:39.212Z,1025.05
2017-10-03T02:49:39.205Z,1025.03
2017-10-03T02:50:39.200Z,1024.96
2017-10-03T02:51:39.192Z,1024.95
2017-10-03T02:52:39.184Z,1024.96
2017-10-03T02:53:39.177Z,1024.95
2017-10-03T02:54:39.169Z,1024.96
2017-10-03T02:55:39.163Z,1024.95
2017-10-03T02:56:39.156Z,1024.95
2017-10-03T02:57:39.148Z,1024.96
2017-10-03T02:58:39.140Z,1024.99
2017-10-03T02:59:39.133Z,1024.97
2017-10-03T03:00:39.125Z,1024.93
2017-10-03T03:01:39.118Z,1024.93
2017-10-03T03:02:39.113Z,1024.94
2017-10-03T03:03:39.106Z,1024.89
2017-10-03T03:04:39.098Z,1024.93
2017-10-03T03:05:39.091Z,1024.89
2017-10-03T03:06:39.084Z,1024.89
2017-10-03T03:07:39.075Z,1024.88
2017-10-03T03:08:39.067Z,1024.87
2017-10-03T03:09:39.061Z,1024.8
2017-10-03T03:10:39.056Z,1024.8
2017-10-03T03:11:39.053Z,1024.83
2017-10-03T03:12:39.040Z,1024.81
2017-10-03T03:13:39.034Z,1024.84
2017-10-03T03:14:39.025Z,1024.88
2017-10-03T03:15:39.018Z,1024.86
2017-10-03T03:16:39.011Z,1024.89
2017-10-03T03:17:39.004Z,1024.86
2017-10-03T03:18:38.997Z,1024.89
2017-10-03T03:19:38.989Z,1024.88
2017-10-03T03:20:38.982Z,1024.88
2017-10-03T03:21:38.975Z,1024.88
2017-10-03T03:22:38.967Z,1024.87
2017-10-03T03:23:38.960Z,1024.84
2017-10-03T03:24:38.953Z,1024.84
2017-10-03T03:25:38.945Z,1024.85
2017-10-03T03:26:38.937Z,1024.86
2017-10-03T03:27:38.931Z,1024.84
2017-10-03T03:28:38.924Z,1024.86
2017-10-03T03:29:38.917Z,1024.83
2017-10-03T03:30:38.915Z,1024.8
2017-10-03T03:31:38.902Z,1024.79
2017-10-03T03:32:38.896Z,1024.82
2017-10-03T03:33:38.888Z,1024.86
2017-10-03T03:34:38.880Z,1024.83
2017-10-03T03:35:38.873Z,1024.81
2017-10-03T03:36:38.865Z,1024.81
2017-10-03T03:37:38.857Z,1024.8
2017-10-03T03:38:38.852Z,1024.87
2017-10-03T03:39:38.844Z,1024.84
2017-10-03T03:40:38.836Z,1024.81
2017-10-03T03:41:38.833Z,1024.79
2017-10-03T03:42:38.820Z,1024.81
2017-10-03T03:43:38.814Z,1024.83
2017-10-03T03:44:38.805Z,1024.81
2017-10-03T03:45:38.798Z,1024.83
2017-10-03T03:46:38.791Z,1024.79
2017-10-03T03:47:38.783Z,1024.84
2017-10-03T03:48:38.776Z,1024.81
2017-10-03T03:49:38.769Z,1024.78
2017-10-03T03:50:38.764Z,1024.76
2017-10-03T03:51:38.754Z,1024.75
2017-10-03T03:52:38.751Z,1024.72
2017-10-03T03:53:38.742Z,1024.68
2017-10-03T03:54:38.732Z,1024.67
2017-10-03T03:55:38.725Z,1024.65
2017-10-03T03:56:38.717Z,1024.66
2017-10-03T03:57:38.711Z,1024.68
2017-10-03T03:58:38.704Z,1024.62
2017-10-03T03:59:38.696Z,1024.58
2017-10-03T04:00:38.689Z,1024.55
2017-10-03T04:01:38.682Z,1024.49
2017-10-03T04:02:38.673Z,1024.48
2017-10-03T04:03:38.667Z,1024.48
2017-10-03T04:04:38.659Z,1024.44
2017-10-03T04:05:38.651Z,1024.41
2017-10-03T04:06:38.644Z,1024.41
2017-10-03T04:07:38.637Z,1024.38
2017-10-03T04:08:38.631Z,1024.38
2017-10-03T04:09:38.623Z,1024.38
2017-10-03T04:10:38.614Z,1024.41
2017-10-03T04:11:38.607Z,1024.46
2017-10-03T04:12:38.601Z,1024.51
2017-10-03T04:13:38.594Z,1024.54
2017-10-03T04:14:38.585Z,1024.55
2017-10-03T04:15:38.579Z,1024.56
2017-10-03T04:16:38.571Z,1024.57
2017-10-03T04:17:38.563Z,1024.54
2017-10-03T04:18:38.558Z,1024.53
2017-10-03T04:19:38.559Z,1024.56
2017-10-03T04:20:38.544Z,1024.55
2017-10-03T04:21:38.534Z,1024.55
2017-10-03T04:22:38.527Z,1024.56
2017-10-03T04:23:38.520Z,1024.65
2017-10-03T04:24:38.512Z,1024.63
2017-10-03T04:25:38.506Z,1024.62
2017-10-03T04:26:38.499Z,1024.59
2017-10-03T04:27:38.492Z,1024.58
2017-10-03T04:28:38.484Z,1024.59
2017-10-03T04:29:38.476Z,1024.61
2017-10-03T04:30:38.468Z,1024.6
2017-10-03T04:31:38.459Z,1024.62
2017-10-03T04:32:38.452Z,1024.63
2017-10-03T04:33:38.445Z,1024.66
2017-10-03T04:34:38.441Z,1024.6
2017-10-03T04:35:38.431Z,1024.58
2017-10-03T04:36:38.423Z,1024.56
2017-10-03T04:37:38.415Z,1024.53
2017-10-03T04:38:38.410Z,1024.55
2017-10-03T04:39:38.401Z,1024.54
2017-10-03T04:40:38.393Z,1024.56
2017-10-03T04:41:38.387Z,1024.55
2017-10-03T04:42:38.377Z,1024.5
2017-10-03T04:43:38.370Z,1024.46
2017-10-03T04:44:38.363Z,1024.49
2017-10-03T04:45:38.358Z,1024.51
2017-10-03T04:46:38.349Z,1024.48
2017-10-03T04:47:38.341Z,1024.52
2017-10-03T04:48:38.336Z,1024.5
2017-10-03T04:49:38.328Z,1024.53
2017-10-03T04:50:38.319Z,1024.48
2017-10-03T04:51:38.313Z,1024.51
2017-10-03T04:52:38.308Z,1024.51
2017-10-03T04:53:38.297Z,1024.45
2017-10-03T04:54:38.291Z,1024.45
2017-10-03T04:55:38.284Z,1024.44
2017-10-03T04:56:38.275Z,1024.44
2017-10-03T04:57:38.267Z,1024.43
2017-10-03T04:58:38.260Z,1024.42
2017-10-03T04:59:38.252Z,1024.42
2017-10-03T05:00:38.244Z,1024.46
2017-10-03T05:01:38.237Z,1024.48
2017-10-03T05:02:38.231Z,1024.42
2017-10-03T05:03:38.224Z,1024.42
2017-10-03T05:04:38.214Z,1024.4
2017-10-03T05:05:38.207Z,1024.37
2017-10-03T05:06:38.202Z,1024.31
2017-10-03T05:07:38.195Z,1024.31
2017-10-03T05:08:38.187Z,1024.32
2017-10-03T05:09:38.179Z,1024.35
2017-10-03T05:10:38.171Z,1024.4
2017-10-03T05:11:38.163Z,1024.42
2017-10-03T05:12:38.156Z,1024.41
2017-10-03T05:13:38.149Z,1024.36
2017-10-03T05:14:38.144Z,1024.37
2017-10-03T05:15:38.135Z,1024.4
2017-10-03T05:16:38.128Z,1024.39
2017-10-03T05:17:38.121Z,1024.4
2017-10-03T05:18:38.114Z,1024.37
2017-10-03T05:19:38.105Z,1024.43
2017-10-03T05:20:38.097Z,1024.45
2017-10-03T05:21:38.091Z,1024.43
2017-10-03T05:22:38.084Z,1024.46
2017-10-03T05:23:38.077Z,1024.44
2017-10-03T05:24:38.069Z,1024.44
2017-10-03T05:25:38.083Z,1024.41
2017-10-03T05:26:38.058Z,1024.45
2017-10-03T05:27:38.046Z,1024.47
2017-10-03T05:28:38.039Z,1024.51
2017-10-03T05:29:38.032Z,1024.49
2017-10-03T05:30:38.026Z,1024.46
2017-10-03T05:31:38.021Z,1024.37
2017-10-03T05:32:38.010Z,1024.33
2017-10-03T05:33:38.003Z,1024.27
2017-10-03T05:34:37.995Z,1024.28
2017-10-03T05:35:37.988Z,1024.17
2017-10-03T05:36:37.981Z,1024.15
2017-10-03T05:37:37.974Z,1024.16
2017-10-03T05:38:37.968Z,1024.19
2017-10-03T05:39:37.961Z,1024.15
2017-10-03T05:40:37.954Z,1024.09
2017-10-03T05:41:37.946Z,1024.06
2017-10-03T05:42:37.938Z,1024.09
2017-10-03T05:43:37.931Z,1024.06
2017-10-03T05:44:37.923Z,1024.07
2017-10-03T05:45:37.916Z,1024.04
2017-10-03T05:46:37.910Z,1024.01
2017-10-03T05:47:37.903Z,1023.96
2017-10-03T05:48:37.896Z,1023.94
2017-10-03T05:49:37.888Z,1023.95
2017-10-03T05:50:37.880Z,1023.95
2017-10-03T05:51:37.873Z,1023.89
2017-10-03T05:52:37.871Z,1023.9
2017-10-03T05:53:37.859Z,1023.85
2017-10-03T05:54:37.852Z,1023.83
2017-10-03T05:55:37.846Z,1023.9
2017-10-03T05:56:37.838Z,1023.88
2017-10-03T05:57:37.832Z,1023.83
2017-10-03T05:58:37.826Z,1023.8
2017-10-03T05:59:37.818Z,1023.81
2017-10-03T06:00:37.811Z,1023.83
2017-10-03T06:01:37.806Z,1023.84
2017-10-03T06:02:37.798Z,1023.82
2017-10-03T06:03:37.790Z,1023.85
2017-10-03T06:04:37.783Z,1023.85
2017-10-03T06:05:37.777Z,1023.81
2017-10-03T06:06:37.870Z,1023.87
2017-10-03T06:07:37.764Z,1023.83
2017-10-03T06:08:37.758Z,1023.79
2017-10-03T06:09:37.759Z,1023.81
2017-10-03T06:10:37.743Z,1023.86
2017-10-03T06:11:37.737Z,1023.93
2017-10-03T06:12:37.730Z,1023.96
2017-10-03T06:13:37.724Z,1023.99
2017-10-03T06:14:37.719Z,1023.94
2017-10-03T06:15:37.712Z,1023.9
2017-10-03T06:16:37.706Z,1023.86
2017-10-03T06:17:37.699Z,1023.8
2017-10-03T06:18:37.691Z,1023.9
2017-10-03T06:19:37.685Z,1023.86
2017-10-03T06:20:37.680Z,1023.85
2017-10-03T06:21:37.676Z,1023.85
2017-10-03T06:22:37.665Z,1023.81
2017-10-03T06:23:37.659Z,1023.82
2017-10-03T06:24:37.653Z,1023.85
2017-10-03T06:25:37.647Z,1023.85
2017-10-03T06:26:37.641Z,1023.88
2017-10-03T06:27:37.636Z,1023.87
2017-10-03T06:28:37.630Z,1023.88
2017-10-03T06:29:37.623Z,1023.84
2017-10-03T06:30:37.616Z,1023.83
2017-10-03T06:31:37.610Z,1023.82
2017-10-03T06:32:37.635Z,1023.73
2017-10-03T06:33:37.596Z,1023.72
2017-10-03T06:34:37.592Z,1023.68
2017-10-03T06:35:37.585Z,1023.67
2017-10-03T06:36:37.580Z,1023.68
2017-10-03T06:37:37.573Z,1023.67
2017-10-03T06:38:37.567Z,1023.66
2017-10-03T06:39:37.560Z,1023.68
2017-10-03T06:40:37.553Z,1023.65
2017-10-03T06:41:37.547Z,1023.65
2017-10-03T06:42:37.543Z,1023.6
2017-10-03T06:43:37.537Z,1023.67
2017-10-03T06:44:37.530Z,1023.68
2017-10-03T06:45:37.523Z,1023.7
2017-10-03T06:46:37.519Z,1023.79
2017-10-03T06:47:37.516Z,1023.8
2017-10-03T06:48:37.507Z,1023.79
2017-10-03T06:49:37.501Z,1023.77
2017-10-03T06:50:37.494Z,1023.79
2017-10-03T06:51:37.488Z,1023.81
2017-10-03T06:52:37.481Z,1023.86
2017-10-03T06:53:37.475Z,1023.88
2017-10-03T06:54:37.469Z,1023.94
2017-10-03T06:55:37.465Z,1023.94
2017-10-03T06:56:37.459Z,1023.95
2017-10-03T06:57:37.451Z,1023.99
2017-10-03T06:58:37.445Z,1024
2017-10-03T06:59:37.439Z,1024.03
2017-10-03T07:00:37.434Z,1024.07
2017-10-03T07:01:37.427Z,1024.05
2017-10-03T07:02:37.423Z,1024.11
2017-10-03T07:03:37.416Z,1024.09
2017-10-03T07:04:37.412Z,1024.12
2017-10-03T07:05:37.405Z,1024.18
2017-10-03T07:06:37.399Z,1024.18
2017-10-03T07:07:37.392Z,1024.17
2017-10-03T07:08:37.386Z,1024.1
2017-10-03T07:09:37.379Z,1024.08
2017-10-03T07:10:37.376Z,1024.03
2017-10-03T07:11:37.368Z,1024.01
2017-10-03T07:12:37.361Z,1024
2017-10-03T07:13:37.356Z,1023.91
2017-10-03T07:14:37.352Z,1023.85
2017-10-03T07:15:37.346Z,1023.74
2017-10-03T07:16:37.340Z,1023.66
2017-10-03T07:17:37.333Z,1023.54
2017-10-03T07:18:37.327Z,1023.54
2017-10-03T07:19:37.320Z,1023.53
2017-10-03T07:20:37.319Z,1023.45
2017-10-03T07:21:37.310Z,1023.4
2017-10-03T07:22:37.305Z,1023.31
2017-10-03T07:23:37.300Z,1023.29
2017-10-03T07:24:37.295Z,1023.17
2017-10-03T07:25:37.289Z,1022.97
2017-10-03T07:26:37.282Z,1022.7
2017-10-03T07:27:37.277Z,1022.5
2017-10-03T07:28:37.273Z,1022.34
2017-10-03T07:29:37.267Z,1022.08
2017-10-03T07:30:37.263Z,1022.03
2017-10-03T07:31:37.261Z,1021.99
2017-10-03T07:32:37.253Z,1021.99
2017-10-03T07:33:37.250Z,1022.03
2017-10-03T07:34:37.242Z,1022.11
2017-10-03T07:35:37.238Z,1022.13
2017-10-03T07:36:37.237Z,1022.19
2017-10-03T07:37:37.232Z,1022.23
2017-10-03T07:38:37.225Z,1022.29
2017-10-03T07:39:37.220Z,1022.27
2017-10-03T07:40:37.217Z,1022.32
2017-10-03T07:41:37.217Z,1022.33
2017-10-03T07:42:37.209Z,1022.4
2017-10-03T07:43:37.206Z,1022.43
2017-10-03T07:44:37.201Z,1022.55
2017-10-03T07:45:37.196Z,1022.67
2017-10-03T07:46:37.192Z,1022.76
2017-10-03T07:47:37.187Z,1022.72
2017-10-03T07:48:37.183Z,1022.77
2017-10-03T07:49:37.178Z,1022.71
2017-10-03T07:50:37.174Z,1022.75
2017-10-03T07:51:37.171Z,1022.82
2017-10-03T07:52:37.166Z,1022.84
2017-10-03T07:53:37.163Z,1022.78
2017-10-03T07:54:37.157Z,1022.82
2017-10-03T07:55:37.153Z,1022.85
2017-10-03T07:56:37.149Z,1022.83
2017-10-03T07:57:37.145Z,1022.88
2017-10-03T07:58:37.142Z,1022.91
2017-10-03T07:59:37.137Z,1022.95
2017-10-03T08:00:37.134Z,1022.87
2017-10-03T08:01:37.135Z,1022.76
2017-10-03T08:02:37.127Z,1022.75
2017-10-03T08:03:37.121Z,1022.73
2017-10-03T08:04:37.118Z,1022.66
2017-10-03T08:05:37.114Z,1022.63
2017-10-03T08:06:37.108Z,1022.57
2017-10-03T08:07:37.104Z,1022.55
2017-10-03T08:08:37.101Z,1022.54
2017-10-03T08:09:37.096Z,1022.51
2017-10-03T08:10:37.093Z,1022.45
2017-10-03T08:11:37.089Z,1022.4
2017-10-03T08:12:37.086Z,1022.46
2017-10-03T08:13:37.082Z,1022.43
2017-10-03T08:14:37.075Z,1022.47
2017-10-03T08:15:37.072Z,1022.37
2017-10-03T08:16:37.068Z,1022.25
2017-10-03T08:17:37.066Z,1022.16
2017-10-03T08:18:37.061Z,1022.06
2017-10-03T08:19:37.059Z,1021.86
2017-10-03T08:20:37.055Z,1021.89
2017-10-03T08:21:37.050Z,1021.86
2017-10-03T08:22:37.046Z,1021.88
2017-10-03T08:23:37.042Z,1021.98
2017-10-03T08:24:37.039Z,1022.11
2017-10-03T08:25:37.035Z,1022.11
2017-10-03T08:26:37.033Z,1022.29
2017-10-03T08:27:37.030Z,1022.46
2017-10-03T08:28:37.025Z,1022.55
2017-10-03T08:29:37.021Z,1022.43
2017-10-03T08:30:37.019Z,1022.49
2017-10-03T08:31:37.016Z,1022.61
2017-10-03T08:32:37.012Z,1022.66
2017-10-03T08:33:37.008Z,1022.7
2017-10-03T08:34:37.003Z,1022.63
2017-10-03T08:35:37.001Z,1022.55
2017-10-03T08:36:36.997Z,1022.4
2017-10-03T08:37:36.992Z,1022.33
2017-10-03T08:38:36.994Z,1022.19
2017-10-03T08:39:36.994Z,1022.07
2017-10-03T08:40:36.983Z,1022.09
2017-10-03T08:41:36.980Z,1022.01
2017-10-03T08:42:36.976Z,1021.99
2017-10-03T08:43:36.972Z,1021.88
2017-10-03T08:44:36.969Z,1021.76
2017-10-03T08:45:36.966Z,1021.73
2017-10-03T08:46:36.964Z,1021.57
2017-10-03T08:47:37.261Z,1021.62
2017-10-03T08:48:36.958Z,1021.69
2017-10-03T08:49:36.955Z,1021.71
2017-10-03T08:50:36.951Z,1021.91
2017-10-03T08:51:36.947Z,1021.8
2017-10-03T08:52:36.946Z,1022.02
2017-10-03T08:53:36.944Z,1021.97
2017-10-03T08:54:36.939Z,1021.95
2017-10-03T08:55:36.936Z,1021.91
2017-10-03T08:56:36.934Z,1021.74
2017-10-03T08:57:36.931Z,1021.76
2017-10-03T08:58:36.931Z,1021.83
2017-10-03T08:59:36.951Z,1021.78
2017-10-03T09:00:36.925Z,1021.7
2017-10-03T09:01:36.922Z,1021.61
2017-10-03T09:02:36.918Z,1021.62
2017-10-03T09:03:36.917Z,1021.58
2017-10-03T09:04:36.914Z,1021.6
2017-10-03T09:05:36.910Z,1021.71
2017-10-03T09:06:36.910Z,1021.76
2017-10-03T09:07:36.907Z,1021.79
2017-10-03T09:08:36.906Z,1021.74
2017-10-03T09:09:36.902Z,1021.74
2017-10-03T09:10:36.900Z,1021.8
2017-10-03T09:11:36.897Z,1021.8
2017-10-03T09:12:36.895Z,1021.72
2017-10-03T09:13:36.892Z,1021.88
2017-10-03T09:14:36.892Z,1022.02
2017-10-03T09:15:36.889Z,1022.14
2017-10-03T09:16:36.887Z,1022.26
2017-10-03T09:17:36.884Z,1022.22
2017-10-03T09:18:36.881Z,1022.15
2017-10-03T09:19:36.881Z,1022.1
2017-10-03T09:20:36.876Z,1022.03
2017-10-03T09:21:36.874Z,1021.93
2017-10-03T09:22:36.873Z,1021.95
2017-10-03T09:23:36.869Z,1022.11
2017-10-03T09:24:36.867Z,1022.21
2017-10-03T09:25:36.864Z,1022.27
2017-10-03T09:26:36.864Z,1022.29
2017-10-03T09:27:36.861Z,1022.32
2017-10-03T09:28:36.859Z,1022.33
2017-10-03T09:29:36.856Z,1022.46
2017-10-03T09:30:36.853Z,1022.28
2017-10-03T09:31:36.851Z,1022.3
2017-10-03T09:32:36.849Z,1022.52
2017-10-03T09:33:36.846Z,1022.6
2017-10-03T09:34:36.845Z,1022.62
2017-10-03T09:35:36.843Z,1022.66
2017-10-03T09:36:36.840Z,1022.73
2017-10-03T09:37:36.839Z,1022.75
2017-10-03T09:38:36.834Z,1022.82
2017-10-03T09:39:36.832Z,1022.85
2017-10-03T09:40:36.829Z,1022.82
2017-10-03T09:41:36.827Z,1022.84
2017-10-03T09:42:36.824Z,1022.63
2017-10-03T09:43:36.822Z,1022.62
2017-10-03T09:44:36.818Z,1022.67
2017-10-03T09:45:36.815Z,1022.72
2017-10-03T09:46:36.814Z,1022.76
2017-10-03T09:47:36.811Z,1022.67
2017-10-03T09:48:36.809Z,1022.71
2017-10-03T09:49:36.808Z,1022.72
2017-10-03T09:50:36.801Z,1022.77
2017-10-03T09:51:36.799Z,1022.77
2017-10-03T09:52:36.797Z,1022.81
2017-10-03T09:53:36.792Z,1022.71
2017-10-03T09:54:36.791Z,1022.75
2017-10-03T09:55:36.789Z,1022.77
2017-10-03T09:56:36.786Z,1022.8
2017-10-03T09:57:36.783Z,1022.74
2017-10-03T09:58:36.779Z,1022.85
2017-10-03T09:59:36.776Z,1022.84
2017-10-03T10:00:36.772Z,1022.81
2017-10-03T10:01:36.770Z,1022.79
2017-10-03T10:02:36.771Z,1022.84
2017-10-03T10:03:36.767Z,1022.84
2017-10-03T10:04:36.763Z,1022.85
2017-10-03T10:05:36.763Z,1022.88
2017-10-03T10:06:36.757Z,1022.83
2017-10-03T10:07:36.753Z,1022.8
2017-10-03T10:08:36.751Z,1022.79
2017-10-03T10:09:36.748Z,1022.72
2017-10-03T10:10:36.747Z,1022.75
2017-10-03T10:11:36.743Z,1022.67
2017-10-03T10:12:36.741Z,1022.66
2017-10-03T10:13:36.740Z,1022.7
2017-10-03T10:14:36.738Z,1022.86
2017-10-03T10:15:36.734Z,1022.97
2017-10-03T10:16:36.732Z,1023.06
2017-10-03T10:17:36.729Z,1023.09
2017-10-03T10:18:36.725Z,1023.24
2017-10-03T10:19:36.723Z,1023.3
2017-10-03T10:20:36.721Z,1023.21
2017-10-03T10:21:36.718Z,1023.3
2017-10-03T10:22:36.715Z,1023.26
2017-10-03T10:23:36.722Z,1023.24
2017-10-03T10:24:36.711Z,1023.2
2017-10-03T10:25:36.709Z,1023.21
2017-10-03T10:26:36.704Z,1023.33
2017-10-03T10:27:36.703Z,1023.34
2017-10-03T10:28:36.700Z,1023.32
2017-10-03T10:29:36.695Z,1023.29
2017-10-03T10:30:36.695Z,1023.27
2017-10-03T10:31:36.693Z,1023.23
2017-10-03T10:32:36.690Z,1023.08
2017-10-03T10:33:36.687Z,1023.08
2017-10-03T10:34:36.684Z,1022.87
2017-10-03T10:35:36.681Z,1022.62
2017-10-03T10:36:36.679Z,1022.27
2017-10-03T10:37:36.677Z,1022.08
2017-10-03T10:38:36.673Z,1021.98
2017-10-03T10:39:36.672Z,1021.85
2017-10-03T10:40:36.668Z,1021.89
2017-10-03T10:41:36.666Z,1021.78
2017-10-03T10:42:36.666Z,1021.71
2017-10-03T10:43:36.664Z,1021.67
2017-10-03T10:44:36.662Z,1021.54
2017-10-03T10:45:36.660Z,1021.61
2017-10-03T10:46:36.658Z,1021.64
2017-10-03T10:47:36.657Z,1021.68
2017-10-03T10:48:36.655Z,1021.72
2017-10-03T10:49:36.653Z,1021.74
2017-10-03T10:50:36.654Z,1021.91
2017-10-03T10:51:36.652Z,1022.07
2017-10-03T10:52:36.651Z,1022.18
2017-10-03T10:53:36.651Z,1022.36
2017-10-03T10:54:36.648Z,1022.5
2017-10-03T10:55:36.647Z,1022.46
2017-10-03T10:56:36.645Z,1022.52
2017-10-03T10:57:36.653Z,1022.47
2017-10-03T10:58:36.645Z,1022.49
2017-10-03T10:59:36.644Z,1022.53
2017-10-03T11:00:36.643Z,1022.58
2017-10-03T11:01:36.640Z,1022.66
2017-10-03T11:02:36.640Z,1022.71
2017-10-03T11:03:36.639Z,1022.73
2017-10-03T11:04:36.638Z,1022.8
2017-10-03T11:05:36.639Z,1022.82
2017-10-03T11:06:36.634Z,1022.85
2017-10-03T11:07:36.633Z,1022.86
2017-10-03T11:08:36.632Z,1022.95
2017-10-03T11:09:36.630Z,1023.05
2017-10-03T11:10:36.631Z,1023.23
2017-10-03T11:11:36.629Z,1023.3
2017-10-03T11:12:36.626Z,1023.45
2017-10-03T11:13:36.626Z,1023.56
2017-10-03T11:14:36.622Z,1023.6
2017-10-03T11:15:36.621Z,1023.76
2017-10-03T11:16:36.619Z,1023.88
2017-10-03T11:17:36.616Z,1023.96
2017-10-03T11:18:36.616Z,1023.94
2017-10-03T11:19:36.613Z,1024.04
2017-10-03T11:20:36.611Z,1024.05
2017-10-03T11:21:36.609Z,1024.05
2017-10-03T11:22:36.605Z,1023.98
2017-10-03T11:23:36.604Z,1024.09
2017-10-03T11:24:36.601Z,1024.25
2017-10-03T11:25:36.597Z,1024.28
2017-10-03T11:26:36.600Z,1024.42
2017-10-03T11:27:36.593Z,1024.46
2017-10-03T11:28:36.590Z,1024.53
2017-10-03T11:29:36.587Z,1024.49
2017-10-03T11:30:36.586Z,1024.54
2017-10-03T11:31:36.583Z,1024.47
2017-10-03T11:32:36.579Z,1024.48
2017-10-03T11:33:36.576Z,1024.43
2017-10-03T11:34:36.573Z,1024.2
2017-10-03T11:35:36.569Z,1024.12
2017-10-03T11:36:36.566Z,1023.94
2017-10-03T11:37:36.564Z,1023.84
2017-10-03T11:38:36.563Z,1023.84
2017-10-03T11:39:36.559Z,1023.79
2017-10-03T11:40:36.556Z,1023.7
2017-10-03T11:41:36.554Z,1023.59
2017-10-03T11:42:36.549Z,1023.67
2017-10-03T11:43:36.546Z,1023.53
2017-10-03T11:44:36.543Z,1023.51
2017-10-03T11:45:36.542Z,1023.5
2017-10-03T11:46:36.540Z,1023.53
2017-10-03T11:47:36.537Z,1023.61
2017-10-03T11:48:36.534Z,1023.75
2017-10-03T11:49:36.532Z,1023.87
2017-10-03T11:50:36.527Z,1024.07
2017-10-03T11:51:36.526Z,1024.21
2017-10-03T11:52:36.524Z,1024.45
2017-10-03T11:53:36.521Z,1024.7
2017-10-03T11:54:36.518Z,1024.81
2017-10-03T11:55:36.514Z,1024.95
2017-10-03T11:56:36.514Z,1025.24
2017-10-03T11:57:36.510Z,1025.37
2017-10-03T11:58:36.509Z,1025.48
2017-10-03T11:59:36.506Z,1025.63
2017-10-03T12:00:36.503Z,1025.73
2017-10-03T12:01:36.500Z,1025.82
2017-10-03T12:02:36.497Z,1025.89
2017-10-03T12:03:36.493Z,1025.95
2017-10-03T12:04:36.492Z,1026.07
2017-10-03T12:05:36.487Z,1026.08
2017-10-03T12:06:36.484Z,1026.24
2017-10-03T12:07:36.481Z,1026.36
2017-10-03T12:08:36.477Z,1026.42